Aviation Digital Data Service (ADDS)

Output produced by METARs form (2056 UTC 26 May 2017)
found at http://www.aviationweather.gov/adds/metars/
 
KMSS 262053Z AUTO 36005KT 10SM -RA FEW026 BKN040 OVC060 13/11 A2974 RMK AO2 SLP073 P0001 60001 T01330111 53007 $
KMSS 262051Z AUTO 01006KT 10SM -RA SCT024 BKN040 OVC075 13/11 A2974 RMK AO2 P0001 $
KMSS 262015Z AUTO 01008KT 10SM -RA SCT019 BKN025 OVC055 13/11 A2973 RMK AO2 P0000 T01330111 $
KMSS 261953Z AUTO 01007KT 10SM -RA SCT016 SCT030 OVC055 14/12 A2972 RMK AO2 RAB28 SLP064 P0000 T01440117 $
KMSS 261951Z AUTO 02007KT 10SM -RA FEW016 SCT030 OVC055 14/11 A2972 RMK AO2 RAB28 P0000 $
KMSS 261853Z AUTO 02010KT 10SM BKN015 BKN021 OVC034 13/12 A2970 RMK AO2 RAE02 SLP060 P0000 T01330117 $
KMSS 261820Z AUTO 03011KT 10SM FEW011 BKN017 OVC024 14/12 A2970 RMK AO2 RAE02 P0000 T01390117 $
KMSS 261739Z 2618/2718 03007KT P6SM VCSH BKN010 OVC030 
     TEMPO 2618/2622 4SM -RA BR OVC010 
     FM270000 02006KT 5SM BR OVC015 
     TEMPO 2707/2711 2SM BR OVC010 
     FM271300 VRB04KT P6SM BKN020